createdAt,value
2023-02-24T00:00:38.915Z,48.70
2023-02-24T00:03:11.900Z,46.92
2023-02-24T00:05:40.752Z,44.92
2023-02-24T00:08:09.272Z,45.63
2023-02-24T00:10:38.349Z,45.72
2023-02-24T00:13:06.956Z,45.10
2023-02-24T00:15:35.574Z,48.75
2023-02-24T00:18:07.824Z,47.63
2023-02-24T00:20:36.563Z,45.70
2023-02-24T00:23:04.819Z,42.50
2023-02-24T00:25:33.045Z,40.97
2023-02-24T00:28:02.447Z,38.75
2023-02-24T00:30:33.484Z,36.05
2023-02-24T00:33:02.938Z,35.15
2023-02-24T00:35:32.817Z,31.77
2023-02-24T00:38:01.169Z,32.08
2023-02-24T00:40:31.172Z,28.40
2023-02-24T00:43:01.080Z,27.27
2023-02-24T00:45:31.572Z,26.88
2023-02-24T00:48:00.297Z,24.90
2023-02-24T00:50:28.553Z,26.15
2023-02-24T00:52:56.781Z,30.23
2023-02-24T00:55:28.660Z,31.65
2023-02-24T00:57:57.467Z,33.30
2023-02-24T01:00:25.835Z,32.63
2023-02-24T01:02:54.783Z,32.50
2023-02-24T01:05:23.297Z,30.92
2023-02-24T01:07:52.777Z,30.38
2023-02-24T01:10:23.936Z,29.88
2023-02-24T01:12:54.661Z,30.95
2023-02-24T01:15:23.316Z,32.70
2023-02-24T01:17:51.576Z,35.92
2023-02-24T01:20:19.964Z,34.63
2023-02-24T01:22:53.849Z,37.83
2023-02-24T01:25:23.091Z,37.53
2023-02-24T01:27:53.129Z,35.78
2023-02-24T01:30:21.567Z,36.88
2023-02-24T01:32:50.310Z,33.65
2023-02-24T01:35:18.529Z,32.63
2023-02-24T01:37:46.734Z,32.90
2023-02-24T01:40:21.829Z,33.22
2023-02-24T01:42:50.984Z,32.83
2023-02-24T01:45:30.291Z,35.05
2023-02-24T01:48:03.300Z,30.80
2023-02-24T01:50:36.174Z,31.25
2023-02-24T01:53:07.711Z,34.63
2023-02-24T01:55:52.652Z,32.75
2023-02-24T01:58:28.937Z,29.80
2023-02-24T02:00:58.490Z,29.60
2023-02-24T02:03:36.692Z,27.35
2023-02-24T02:06:12.390Z,27.88
2023-02-24T02:08:42.623Z,28.95
2023-02-24T02:11:14.458Z,27.60
2023-02-24T02:13:45.621Z,25.30
2023-02-24T02:16:33.089Z,25.45
2023-02-24T02:19:26.554Z,24.80
2023-02-24T02:22:07.533Z,25.30
2023-02-24T02:24:49.458Z,26.38
2023-02-24T02:27:37.575Z,24.63
2023-02-24T02:30:15.013Z,22.17
2023-02-24T02:35:40.786Z,23.42
2023-02-24T02:41:07.475Z,22.85
2023-02-24T02:43:49.813Z,25.45
2023-02-24T02:46:39.216Z,24.38
2023-02-24T02:49:17.092Z,22.27
2023-02-24T02:51:55.332Z,23.52
2023-02-24T02:54:50.175Z,27.13
2023-02-24T02:57:28.736Z,25.85
2023-02-24T03:00:21.733Z,25.02
2023-02-24T03:02:57.170Z,23.00
2023-02-24T03:05:30.494Z,22.40
2023-02-24T03:08:01.650Z,22.13
2023-02-24T03:10:35.092Z,22.52
2023-02-24T03:13:09.166Z,23.38
2023-02-24T03:15:42.577Z,23.90
2023-02-24T03:18:19.130Z,27.83
2023-02-24T03:20:52.774Z,26.85
2023-02-24T03:23:28.572Z,26.92
2023-02-24T03:26:24.300Z,27.55
2023-02-24T03:29:00.013Z,27.48
2023-02-24T03:31:33.424Z,29.92
2023-02-24T03:34:16.741Z,30.42
2023-02-24T03:36:45.532Z,29.73
2023-02-24T03:39:16.572Z,30.33
2023-02-24T03:42:04.027Z,30.45
2023-02-24T03:44:36.211Z,29.27
2023-02-24T03:47:04.457Z,31.00
2023-02-24T03:49:32.786Z,30.45
2023-02-24T03:52:09.495Z,37.08
2023-02-24T03:55:06.932Z,39.25
2023-02-24T03:57:55.741Z,41.95
2023-02-24T04:00:47.461Z,34.80
2023-02-24T04:03:27.705Z,35.35
2023-02-24T04:06:28.016Z,34.35
2023-02-24T04:09:34.812Z,41.50
2023-02-24T04:12:43.509Z,44.97
2023-02-24T04:15:23.607Z,45.63
2023-02-24T04:17:59.421Z,47.03
2023-02-24T04:20:35.055Z,41.80
2023-02-24T04:23:22.615Z,41.90
2023-02-24T04:25:53.804Z,41.72
2023-02-24T04:28:23.422Z,40.83
2023-02-24T04:30:58.579Z,40.13
2023-02-24T04:33:27.084Z,39.88
2023-02-24T04:35:55.553Z,39.97
2023-02-24T04:38:25.458Z,38.42
2023-02-24T04:40:54.966Z,39.28
2023-02-24T04:43:23.726Z,38.45
2023-02-24T04:45:56.487Z,38.60
2023-02-24T04:48:25.009Z,38.10
2023-02-24T04:50:55.509Z,39.83
2023-02-24T04:53:28.191Z,42.30
2023-02-24T04:55:56.766Z,40.45
2023-02-24T04:58:28.815Z,39.67
2023-02-24T05:00:57.474Z,41.75
2023-02-24T05:03:28.830Z,42.78
2023-02-24T05:06:00.644Z,43.13
2023-02-24T05:08:31.666Z,43.95
2023-02-24T05:11:07.810Z,43.80
2023-02-24T05:13:38.331Z,42.87
2023-02-24T05:16:09.180Z,41.90
2023-02-24T05:18:39.929Z,42.28
2023-02-24T05:21:29.223Z,41.20
2023-02-24T05:23:59.969Z,42.25
2023-02-24T05:26:28.131Z,44.17
2023-02-24T05:28:56.827Z,44.72
2023-02-24T05:31:28.314Z,46.08
2023-02-24T05:33:59.621Z,45.03
2023-02-24T05:36:32.583Z,45.28
2023-02-24T05:39:08.370Z,44.00
2023-02-24T05:41:39.082Z,44.47
2023-02-24T05:44:11.522Z,45.28
